Weather at Sengkurong Heliport

Public forecast

Using degrees Celsius for public forecast. Weather courtesy of forecast.io.

Closest aviation weather report (METAR) to Sengkurong Heliport

Closest report is Brunei International Airport, 6.4 nm (11.9 km) E. Retrieved 2022/08/09 07:00 UTC (17 minutes ago):

WBSB 090700Z 32007KT 9999 FEW015 FEW016CB BKN140 31/26 Q1006 NOSIG

Closest aviation forecast (TAF) to Sengkurong Heliport

Closest forecast is Brunei International Airport, 6.4 nm (11.9 km) E. Retrieved 2022/08/09 06:12 UTC (1 hour ago):

TAF WBSB 090450Z 0906/1012 33008KT 9999 FEW015 FEW016CB TEMPO 0910/0914 6000 -TSRA BECMG 0912/0914 23005KT FEW014 FEW015CB TEMPO 0914/0918 6000 -TSRA